Skip Navigation LinksHome page > Weather > Current weather Skip Navigation Links

Current Weather

San Francisco International, San Francisco

For information only: do not use for flight planning or navigation.
Latest weather
Observation time Tuesday, October 19, 2021 12:56 PM PDT
Local time Tuesday, October 19, 2021 1:26 PM PDT
Flight conditions Visual Meteorological Conditions
Winds
Wind speed calm
Visibility 10 mi.
Sky condition
Ceiling 20,000 ft. broken clouds
Cloud layer few clouds 2,500 ft.
Cloud layer broken clouds 20,000 ft.
Temperature 61°F
Dewpoint 47°F
Altimeter 29.99 in.Hg
Derived measurements
Relative humidity 60%
Density altitude 222 ft.
Sea-level pressure 29.99 in.Hg
Remarks
Automated weather observing station with precipitation discriminator.
METAR KSFO 191956Z 00000KT 10SM FEW025 BKN200 16/08 A2999 RMK AO2 SLP155 T01610083

Settings

Location code

InnerDrive.Weather 4.0.6770.0 Release CLR 4.0.30319.42000
Copyright ©2018 Inner Drive Technology. All rights reserved. Portions Copyright ©1986-2018 David Braverman.

Find weather

Site navigation


Skip Navigation Links

Place info

Page info

PayPal - The safer, easier way to pay online!

Return home.

Copyright ©2021 Inner Drive Technology. Purveyors of fine, hand-crafted computer software. Page printed 2021-10-19T20:26:19 UTC.